CheckWX is a tool to help pilots better visualize weather data.  It is not intended as a substitute for an official pre-flight weather briefing.

10:28:04 UTC

VTPM METAR
Mae Sot Airport
Thailand
Current

28 mins ago

VTPM 221000Z 08008KT 9999 FEW025 32/21 Q1009 NOSIG
Observed
Sep-22 @ 10:00 UTC
Wind
  • 080° at 8 KTS
Visibility
10,000+ meters
Flight Rules
VFR
Cloud Levels
  • Few at 2,500' AGL
Temperature
32°C / 90°F
Dewpoint
21°C / 70°F
Heat Index
36°C / 96°F
Humidity
52%
Altimeter
29.79" Hg
Pressure
1008.92 hPa
Previous

1 hour ago

VTPM 220900Z 11008KT 9999 FEW022 33/21 Q1009 NOSIG
Observed
Sep-22 @ 09:00 UTC
Wind
  • 110° at 8 KTS
Visibility
10,000+ meters
Flight Rules
VFR
Cloud Levels
  • Few at 2,200' AGL
Temperature
33°C / 91°F
Dewpoint
21°C / 70°F
Heat Index
36°C / 96°F
Humidity
49%
Altimeter
29.79" Hg
Pressure
1008.92 hPa
Previous

2 hours ago

VTPM 220800Z 09008KT 9999 FEW022 33/22 Q1010 NOSIG
Observed
Sep-22 @ 08:00 UTC
Wind
  • 090° at 8 KTS
Visibility
10,000+ meters
Flight Rules
VFR
Cloud Levels
  • Few at 2,200' AGL
Temperature
33°C / 91°F
Dewpoint
22°C / 72°F
Heat Index
37°C / 98°F
Humidity
52%
Altimeter
29.82" Hg
Pressure
1009.92 hPa